sensor_id;sensor_type;location;lat;lon;timestamp;pressure;altitude;pressure_sealevel;temperature;humidity
28354;BME280;15603;50.878;8.036;2024-03-22T05:35:50;143029.63;;;-1.02;100.00
28354;BME280;15603;50.878;8.036;2024-03-22T05:38:16;143058.53;;;-0.89;100.00
28354;BME280;15603;50.878;8.036;2024-03-22T05:40:43;143007.94;;;-1.11;100.00
28354;BME280;15603;50.878;8.036;2024-03-22T05:43:11;143045.25;;;-0.95;100.00
28354;BME280;15603;50.878;8.036;2024-03-22T05:45:37;143063.34;;;-0.87;100.00
28354;BME280;15603;50.878;8.036;2024-03-22T05:48:03;143039.25;;;-0.97;100.00
28354;BME280;15603;50.878;8.036;2024-03-22T05:50:29;143072.97;;;-0.83;100.00
28354;BME280;15603;50.878;8.036;2024-03-22T05:52:56;143048.88;;;-0.93;100.00
28354;BME280;15603;50.878;8.036;2024-03-22T05:55:22;143110.38;;;-0.67;100.00
28354;BME280;15603;50.878;8.036;2024-03-22T05:57:49;143120.00;;;-0.63;100.00
28354;BME280;15603;50.878;8.036;2024-03-22T06:00:15;143080.22;;;-0.80;100.00
28354;BME280;15603;50.878;8.036;2024-03-22T06:02:41;143079.03;;;-0.81;100.00
28354;BME280;15603;50.878;8.036;2024-03-22T06:05:07;143129.63;;;-0.59;100.00
28354;BME280;15603;50.878;8.036;2024-03-22T06:07:34;143138.09;;;-0.55;100.00
28354;BME280;15603;50.878;8.036;2024-03-22T06:10:07;143089.84;;;-0.76;100.00
28354;BME280;15603;50.878;8.036;2024-03-22T06:12:33;143126.00;;;-0.61;100.00
28354;BME280;15603;50.878;8.036;2024-03-22T06:15:00;143136.84;;;-0.56;100.00
28354;BME280;15603;50.878;8.036;2024-03-22T06:17:26;143176.63;;;-0.39;100.00
28354;BME280;15603;50.878;8.036;2024-03-22T06:19:52;143072.97;;;-0.83;100.00
28354;BME280;15603;50.878;8.036;2024-03-22T06:22:18;143106.75;;;-0.69;100.00
28354;BME280;15603;50.878;8.036;2024-03-22T06:24:45;143154.91;;;-0.48;100.00
28354;BME280;15603;50.878;8.036;2024-03-22T06:27:11;143128.44;;;-0.60;100.00
28354;BME280;15603;50.878;8.036;2024-03-22T06:29:37;143215.22;;;-0.23;100.00
28354;BME280;15603;50.878;8.036;2024-03-22T06:32:04;143171.81;;;-0.41;100.00
28354;BME280;15603;50.878;8.036;2024-03-22T06:34:30;143238.13;;;-0.13;100.00
28354;BME280;15603;50.878;8.036;2024-03-22T06:36:56;143241.75;;;-0.11;100.00
28354;BME280;15603;50.878;8.036;2024-03-22T06:39:23;143168.19;;;-0.43;100.00
28354;BME280;15603;50.878;8.036;2024-03-22T06:41:50;143232.13;;;-0.15;100.00
28354;BME280;15603;50.878;8.036;2024-03-22T06:44:16;143211.59;;;-0.24;100.00
28354;BME280;15603;50.878;8.036;2024-03-22T06:46:42;143200.78;;;-0.29;100.00
28354;BME280;15603;50.878;8.036;2024-03-22T06:49:08;143234.50;;;-0.14;100.00
28354;BME280;15603;50.878;8.036;2024-03-22T06:51:35;143283.94;;;0.07;100.00
28354;BME280;15603;50.878;8.036;2024-03-22T06:54:02;143273.09;;;0.02;100.00
28354;BME280;15603;50.878;8.036;2024-03-22T06:56:28;143306.84;;;0.16;100.00
28354;BME280;15603;50.878;8.036;2024-03-22T06:58:54;143269.47;;;0.01;100.00
28354;BME280;15603;50.878;8.036;2024-03-22T07:01:21;143327.38;;;0.25;100.00
28354;BME280;15603;50.878;8.036;2024-03-22T07:03:47;143286.34;;;0.08;100.00
28354;BME280;15603;50.878;8.036;2024-03-22T07:06:15;143362.31;;;0.40;100.00
28354;BME280;15603;50.878;8.036;2024-03-22T07:08:41;143292.41;;;0.10;100.00
28354;BME280;15603;50.878;8.036;2024-03-22T07:11:07;143376.78;;;0.46;100.00
28354;BME280;15603;50.878;8.036;2024-03-22T07:13:35;143403.34;;;0.57;100.00
28354;BME280;15603;50.878;8.036;2024-03-22T07:16:02;143419.03;;;0.64;100.00
28354;BME280;15603;50.878;8.036;2024-03-22T07:18:29;143410.59;;;0.61;100.00
28354;BME280;15603;50.878;8.036;2024-03-22T07:20:55;143379.22;;;0.47;100.00
28354;BME280;15603;50.878;8.036;2024-03-22T07:23:23;143451.63;;;0.78;100.00
28354;BME280;15603;50.878;8.036;2024-03-22T07:25:50;143403.34;;;0.57;100.00
28354;BME280;15603;50.878;8.036;2024-03-22T07:28:16;143462.44;;;0.83;100.00
28354;BME280;15603;50.878;8.036;2024-03-22T07:30:42;143505.91;;;1.01;100.00
28354;BME280;15603;50.878;8.036;2024-03-22T07:33:10;143504.72;;;1.01;100.00
28354;BME280;15603;50.878;8.036;2024-03-22T07:35:42;143470.91;;;0.86;100.00
28354;BME280;15603;50.878;8.036;2024-03-22T07:38:08;143503.47;;;1.00;100.00
28354;BME280;15603;50.878;8.036;2024-03-22T07:40:34;143569.88;;;1.28;100.00
28354;BME280;15603;50.878;8.036;2024-03-22T07:43:01;143595.25;;;1.39;100.00
28354;BME280;15603;50.878;8.036;2024-03-22T07:45:34;143637.47;;;1.57;100.00
28354;BME280;15603;50.878;8.036;2024-03-22T07:48:03;143658.03;;;1.66;100.00
28354;BME280;15603;50.878;8.036;2024-03-22T07:50:29;143693.00;;;1.81;100.00
28354;BME280;15603;50.878;8.036;2024-03-22T07:52:56;143683.34;;;1.76;100.00
28354;BME280;15603;50.878;8.036;2024-03-22T07:55:22;143737.69;;;2.00;100.00
28354;BME280;15603;50.878;8.036;2024-03-22T07:57:49;143740.13;;;2.01;100.00
28354;BME280;15603;50.878;8.036;2024-03-22T08:00:15;143688.19;;;1.79;100.00
28354;BME280;15603;50.878;8.036;2024-03-22T08:02:41;143699.06;;;1.83;100.00
28354;BME280;15603;50.878;8.036;2024-03-22T08:05:07;143724.41;;;1.94;100.00
28354;BME280;15603;50.878;8.036;2024-03-22T08:07:34;143735.31;;;1.99;100.00
28354;BME280;15603;50.878;8.036;2024-03-22T08:10:01;143744.97;;;2.03;100.00
28354;BME280;15603;50.878;8.036;2024-03-22T08:12:28;143759.44;;;2.09;100.00
28354;BME280;15603;50.878;8.036;2024-03-22T08:14:54;143673.69;;;1.72;100.00
28354;BME280;15603;50.878;8.036;2024-03-22T08:17:21;143796.88;;;2.25;100.00
28354;BME280;15603;50.878;8.036;2024-03-22T08:19:47;143810.16;;;2.30;100.00
28354;BME280;15603;50.878;8.036;2024-03-22T08:22:14;143782.41;;;2.19;100.00
28354;BME280;15603;50.878;8.036;2024-03-22T08:24:40;143932.22;;;2.82;100.00
28354;BME280;15603;50.878;8.036;2024-03-22T08:27:06;143958.81;;;2.93;100.00
28354;BME280;15603;50.878;8.036;2024-03-22T08:29:32;144082.09;;;3.46;100.00
28354;BME280;15603;50.878;8.036;2024-03-22T08:31:59;144125.66;;;3.64;100.00
28354;BME280;15603;50.878;8.036;2024-03-22T08:34:25;144062.78;;;3.38;100.00
28354;BME280;15603;50.878;8.036;2024-03-22T08:36:51;144093.00;;;3.50;100.00
28354;BME280;15603;50.878;8.036;2024-03-22T08:39:17;144120.81;;;3.62;100.00
28354;BME280;15603;50.878;8.036;2024-03-22T08:41:46;144177.63;;;3.86;99.28
28354;BME280;15603;50.878;8.036;2024-03-22T08:44:12;144207.88;;;3.99;98.20
28354;BME280;15603;50.878;8.036;2024-03-22T08:46:39;144222.41;;;4.05;98.56
28354;BME280;15603;50.878;8.036;2024-03-22T08:49:05;144234.50;;;4.10;96.53
28354;BME280;15603;50.878;8.036;2024-03-22T08:51:32;144222.41;;;4.05;96.39
28354;BME280;15603;50.878;8.036;2024-03-22T08:53:58;144298.63;;;4.38;97.42
28354;BME280;15603;50.878;8.036;2024-03-22T08:56:25;144435.38;;;4.96;95.63
28354;BME280;15603;50.878;8.036;2024-03-22T08:58:51;144408.72;;;4.84;92.24
28354;BME280;15603;50.878;8.036;2024-03-22T09:01:17;144575.81;;;5.55;90.36
28354;BME280;15603;50.878;8.036;2024-03-22T09:03:43;144619.44;;;5.74;90.62
28354;BME280;15603;50.878;8.036;2024-03-22T09:06:12;144723.63;;;6.18;88.83
28354;BME280;15603;50.878;8.036;2024-03-22T09:08:39;144697.00;;;6.06;86.63
28354;BME280;15603;50.878;8.036;2024-03-22T09:11:05;144728.50;;;6.20;86.68
28354;BME280;15603;50.878;8.036;2024-03-22T09:13:31;144705.44;;;6.10;85.63
28354;BME280;15603;50.878;8.036;2024-03-22T09:16:01;144684.88;;;6.01;84.28
28354;BME280;15603;50.878;8.036;2024-03-22T09:18:28;144682.44;;;6.00;86.83
28354;BME280;15603;50.878;8.036;2024-03-22T09:20:55;144693.38;;;6.05;87.79
28354;BME280;15603;50.878;8.036;2024-03-22T09:23:22;144608.50;;;5.69;87.18
28354;BME280;15603;50.878;8.036;2024-03-22T09:25:48;144558.84;;;5.48;87.40
28354;BME280;15603;50.878;8.036;2024-03-22T09:28:15;144585.50;;;5.59;87.12
28354;BME280;15603;50.878;8.036;2024-03-22T09:30:41;144597.63;;;5.64;88.78
28354;BME280;15603;50.878;8.036;2024-03-22T09:33:09;144625.47;;;5.76;89.96
28354;BME280;15603;50.878;8.036;2024-03-22T09:35:35;144566.13;;;5.51;87.01
28354;BME280;15603;50.878;8.036;2024-03-22T09:38:02;144597.63;;;5.64;88.00
28354;BME280;15603;50.878;8.036;2024-03-22T09:40:28;144614.56;;;5.71;90.24
28354;BME280;15603;50.878;8.036;2024-03-22T09:43:02;144723.63;;;6.18;85.83
28354;BME280;15603;50.878;8.036;2024-03-22T09:45:31;144726.06;;;6.19;85.14
28354;BME280;15603;50.878;8.036;2024-03-22T09:47:58;144826.66;;;6.61;83.26
28354;BME280;15603;50.878;8.036;2024-03-22T09:50:25;144804.81;;;6.52;85.11
28354;BME280;15603;50.878;8.036;2024-03-22T09:52:52;144803.63;;;6.52;82.47
28354;BME280;15603;50.878;8.036;2024-03-22T09:55:22;144809.66;;;6.54;85.25
28354;BME280;15603;50.878;8.036;2024-03-22T09:57:50;144818.16;;;6.58;84.21
28354;BME280;15603;50.878;8.036;2024-03-22T10:00:19;144779.41;;;6.41;82.09
28354;BME280;15603;50.878;8.036;2024-03-22T10:02:51;144703.06;;;6.09;84.62
28354;BME280;15603;50.878;8.036;2024-03-22T10:05:17;144663.03;;;5.92;84.30
28354;BME280;15603;50.878;8.036;2024-03-22T10:07:44;144701.84;;;6.08;85.91
28354;BME280;15603;50.878;8.036;2024-03-22T10:10:11;144641.22;;;5.83;86.35
28354;BME280;15603;50.878;8.036;2024-03-22T10:12:38;144711.53;;;6.13;86.46
28354;BME280;15603;50.878;8.036;2024-03-22T10:15:05;144743.03;;;6.26;85.11
28354;BME280;15603;50.878;8.036;2024-03-22T10:17:41;144597.63;;;5.64;85.53
28354;BME280;15603;50.878;8.036;2024-03-22T10:20:07;144694.56;;;6.05;86.37
28354;BME280;15603;50.878;8.036;2024-03-22T10:22:47;144654.53;;;5.88;87.54
28354;BME280;15603;50.878;8.036;2024-03-22T10:25:14;144718.78;;;6.16;85.49
28354;BME280;15603;50.878;8.036;2024-03-22T10:27:40;144681.25;;;6.00;85.67
28354;BME280;15603;50.878;8.036;2024-03-22T10:30:08;144729.72;;;6.20;85.36
28354;BME280;15603;50.878;8.036;2024-03-22T10:32:36;144699.41;;;6.07;84.46
28354;BME280;15603;50.878;8.036;2024-03-22T10:35:03;144694.56;;;6.05;84.09
28354;BME280;15603;50.878;8.036;2024-03-22T10:37:33;144738.19;;;6.24;84.75
28354;BME280;15603;50.878;8.036;2024-03-22T10:40:03;144745.44;;;6.27;82.27
28354;BME280;15603;50.878;8.036;2024-03-22T10:42:37;144837.56;;;6.66;81.11
28354;BME280;15603;50.878;8.036;2024-03-22T10:45:05;144865.44;;;6.78;82.21
28354;BME280;15603;50.878;8.036;2024-03-22T10:47:32;144904.22;;;6.94;78.92
28354;BME280;15603;50.878;8.036;2024-03-22T10:50:08;144907.88;;;6.96;78.50
28354;BME280;15603;50.878;8.036;2024-03-22T10:52:39;144847.28;;;6.70;78.42
28354;BME280;15603;50.878;8.036;2024-03-22T10:55:11;144810.91;;;6.55;77.63
28354;BME280;15603;50.878;8.036;2024-03-22T10:57:38;144861.81;;;6.76;77.35
28354;BME280;15603;50.878;8.036;2024-03-22T11:00:09;144818.16;;;6.58;80.43
28354;BME280;15603;50.878;8.036;2024-03-22T11:02:38;144856.97;;;6.74;76.85
28354;BME280;15603;50.878;8.036;2024-03-22T11:05:04;144852.13;;;6.72;76.90
28354;BME280;15603;50.878;8.036;2024-03-22T11:07:32;144853.31;;;6.73;78.00
28354;BME280;15603;50.878;8.036;2024-03-22T11:10:01;144758.78;;;6.33;78.24
28354;BME280;15603;50.878;8.036;2024-03-22T11:12:29;144697.00;;;6.06;79.72
28354;BME280;15603;50.878;8.036;2024-03-22T11:14:59;144764.88;;;6.35;78.00
28354;BME280;15603;50.878;8.036;2024-03-22T11:17:28;144663.03;;;5.92;79.47
28354;BME280;15603;50.878;8.036;2024-03-22T11:19:57;144684.88;;;6.01;79.87
28354;BME280;15603;50.878;8.036;2024-03-22T11:22:25;144728.50;;;6.20;79.96
28354;BME280;15603;50.878;8.036;2024-03-22T11:24:54;144746.69;;;6.27;79.99
28354;BME280;15603;50.878;8.036;2024-03-22T11:27:21;144770.91;;;6.38;79.58
28354;BME280;15603;50.878;8.036;2024-03-22T11:29:47;144779.41;;;6.41;79.78
28354;BME280;15603;50.878;8.036;2024-03-22T11:32:17;144835.13;;;6.65;78.83
28354;BME280;15603;50.878;8.036;2024-03-22T11:34:43;144832.69;;;6.64;78.12
28354;BME280;15603;50.878;8.036;2024-03-22T11:37:10;144776.94;;;6.40;77.58
28354;BME280;15603;50.878;8.036;2024-03-22T11:39:37;144854.50;;;6.73;77.90
28354;BME280;15603;50.878;8.036;2024-03-22T11:42:05;144866.66;;;6.78;76.28
28354;BME280;15603;50.878;8.036;2024-03-22T11:44:33;144913.91;;;6.98;77.13
28354;BME280;15603;50.878;8.036;2024-03-22T11:47:01;144900.56;;;6.93;76.47
28354;BME280;15603;50.878;8.036;2024-03-22T11:49:27;144859.34;;;6.75;75.58
28354;BME280;15603;50.878;8.036;2024-03-22T11:51:53;144821.81;;;6.59;76.30
28354;BME280;15603;50.878;8.036;2024-03-22T11:54:21;144893.31;;;6.90;74.55
28354;BME280;15603;50.878;8.036;2024-03-22T11:56:47;144849.66;;;6.71;75.70
28354;BME280;15603;50.878;8.036;2024-03-22T11:59:14;144839.97;;;6.67;74.40
28354;BME280;15603;50.878;8.036;2024-03-22T12:01:43;144893.31;;;6.90;74.68
28354;BME280;15603;50.878;8.036;2024-03-22T12:04:09;144835.13;;;6.65;73.76
28354;BME280;15603;50.878;8.036;2024-03-22T12:06:49;144861.81;;;6.76;76.16
28354;BME280;15603;50.878;8.036;2024-03-22T12:09:16;144738.19;;;6.24;76.29
28354;BME280;15603;50.878;8.036;2024-03-22T12:11:43;144864.22;;;6.77;74.05
28354;BME280;15603;50.878;8.036;2024-03-22T12:14:09;144890.88;;;6.88;75.85
28354;BME280;15603;50.878;8.036;2024-03-22T12:16:36;144922.41;;;7.02;72.14
28354;BME280;15603;50.878;8.036;2024-03-22T12:19:03;144890.88;;;6.88;72.86
28354;BME280;15603;50.878;8.036;2024-03-22T12:21:29;144835.13;;;6.65;72.51
28354;BME280;15603;50.878;8.036;2024-03-22T12:23:56;144750.28;;;6.29;74.40
28354;BME280;15603;50.878;8.036;2024-03-22T12:26:23;144887.22;;;6.87;72.09
28354;BME280;15603;50.878;8.036;2024-03-22T12:28:49;144963.63;;;7.19;71.01
28354;BME280;15603;50.878;8.036;2024-03-22T12:31:17;144893.31;;;6.90;72.21
28354;BME280;15603;50.878;8.036;2024-03-22T12:33:44;144830.28;;;6.63;71.75
28354;BME280;15603;50.878;8.036;2024-03-22T12:36:12;144922.41;;;7.02;75.06
28354;BME280;15603;50.878;8.036;2024-03-22T12:38:41;144985.47;;;7.28;74.52
28354;BME280;15603;50.878;8.036;2024-03-22T12:41:07;144966.06;;;7.20;72.86
28354;BME280;15603;50.878;8.036;2024-03-22T12:43:34;144866.66;;;6.78;72.93
28354;BME280;15603;50.878;8.036;2024-03-22T12:46:00;144807.25;;;6.53;70.28
28354;BME280;15603;50.878;8.036;2024-03-22T12:48:27;144836.34;;;6.65;69.35
28354;BME280;15603;50.878;8.036;2024-03-22T12:50:55;144839.97;;;6.67;70.06
28354;BME280;15603;50.878;8.036;2024-03-22T12:53:22;144721.22;;;6.17;70.08
28354;BME280;15603;50.878;8.036;2024-03-22T12:55:48;144629.13;;;5.78;69.64
28354;BME280;15603;50.878;8.036;2024-03-22T12:58:14;144813.31;;;6.56;69.74
28354;BME280;15603;50.878;8.036;2024-03-22T13:00:41;144733.34;;;6.22;67.77
28354;BME280;15603;50.878;8.036;2024-03-22T13:03:07;144722.44;;;6.17;67.11
28354;BME280;15603;50.878;8.036;2024-03-22T13:05:33;144861.81;;;6.76;67.43
28354;BME280;15603;50.878;8.036;2024-03-22T13:08:00;144810.91;;;6.55;67.57
28354;BME280;15603;50.878;8.036;2024-03-22T13:10:28;144936.94;;;7.08;64.84
28354;BME280;15603;50.878;8.036;2024-03-22T13:12:54;145015.78;;;7.41;64.55
28354;BME280;15603;50.878;8.036;2024-03-22T13:15:21;145084.91;;;7.71;63.85
28354;BME280;15603;50.878;8.036;2024-03-22T13:17:50;144864.22;;;6.77;62.66
28354;BME280;15603;50.878;8.036;2024-03-22T13:20:25;145053.38;;;7.57;63.22
28354;BME280;15603;50.878;8.036;2024-03-22T13:22:52;145043.69;;;7.53;63.73
28354;BME280;15603;50.878;8.036;2024-03-22T13:25:18;144966.06;;;7.20;63.52
28354;BME280;15603;50.878;8.036;2024-03-22T13:27:44;144905.41;;;6.95;63.33
28354;BME280;15603;50.878;8.036;2024-03-22T13:30:11;144995.16;;;7.33;62.17
28354;BME280;15603;50.878;8.036;2024-03-22T13:32:38;144986.66;;;7.29;59.74
28354;BME280;15603;50.878;8.036;2024-03-22T13:35:05;144968.47;;;7.21;60.55
28354;BME280;15603;50.878;8.036;2024-03-22T13:37:32;144871.50;;;6.80;58.74
28354;BME280;15603;50.878;8.036;2024-03-22T13:39:59;144941.78;;;7.10;58.99
28354;BME280;15603;50.878;8.036;2024-03-22T13:42:26;144984.25;;;7.28;59.32
28354;BME280;15603;50.878;8.036;2024-03-22T13:44:52;144963.63;;;7.19;56.55
28354;BME280;15603;50.878;8.036;2024-03-22T13:47:19;144892.13;;;6.89;54.94
28354;BME280;15603;50.878;8.036;2024-03-22T13:49:45;144995.16;;;7.33;53.16
28354;BME280;15603;50.878;8.036;2024-03-22T13:52:12;145104.31;;;7.79;52.72
28354;BME280;15603;50.878;8.036;2024-03-22T13:54:41;145106.75;;;7.80;53.69
28354;BME280;15603;50.878;8.036;2024-03-22T13:57:07;144978.16;;;7.25;53.47
28354;BME280;15603;50.878;8.036;2024-03-22T13:59:34;145032.72;;;7.48;53.80
28354;BME280;15603;50.878;8.036;2024-03-22T14:02:00;144993.94;;;7.32;51.92
28354;BME280;15603;50.878;8.036;2024-03-22T14:04:27;144871.50;;;6.80;50.99
28354;BME280;15603;50.878;8.036;2024-03-22T14:06:55;145060.66;;;7.60;50.59
28354;BME280;15603;50.878;8.036;2024-03-22T14:09:21;145032.72;;;7.48;51.72
28354;BME280;15603;50.878;8.036;2024-03-22T14:11:47;145054.56;;;7.58;53.86
28354;BME280;15603;50.878;8.036;2024-03-22T14:14:14;145148.00;;;7.97;53.20
28354;BME280;15603;50.878;8.036;2024-03-22T14:16:41;145146.78;;;7.97;54.58
28354;BME280;15603;50.878;8.036;2024-03-22T14:19:07;145256.03;;;8.43;55.11
28354;BME280;15603;50.878;8.036;2024-03-22T14:21:34;145300.91;;;8.62;53.99
28354;BME280;15603;50.878;8.036;2024-03-22T14:24:01;145305.78;;;8.64;53.57
28354;BME280;15603;50.878;8.036;2024-03-22T14:26:27;145314.25;;;8.68;53.89
28354;BME280;15603;50.878;8.036;2024-03-22T14:28:53;145175.91;;;8.09;54.26
28354;BME280;15603;50.878;8.036;2024-03-22T14:31:19;145211.09;;;8.24;51.84
28354;BME280;15603;50.878;8.036;2024-03-22T14:33:45;145177.09;;;8.10;51.56
28354;BME280;15603;50.878;8.036;2024-03-22T14:36:11;145095.81;;;7.75;51.62
28354;BME280;15603;50.878;8.036;2024-03-22T14:38:40;145172.25;;;8.07;51.48
28354;BME280;15603;50.878;8.036;2024-03-22T14:41:06;145087.31;;;7.72;51.76
28354;BME280;15603;50.878;8.036;2024-03-22T14:43:32;145140.69;;;7.94;51.25
28354;BME280;15603;50.878;8.036;2024-03-22T14:46:01;145154.06;;;8.00;51.80
28354;BME280;15603;50.878;8.036;2024-03-22T14:48:30;145165.00;;;8.04;51.17
28354;BME280;15603;50.878;8.036;2024-03-22T14:50:56;145150.41;;;7.98;51.65
28354;BME280;15603;50.878;8.036;2024-03-22T14:53:22;145013.34;;;7.40;50.95
28354;BME280;15603;50.878;8.036;2024-03-22T14:55:56;145197.75;;;8.18;50.69
28354;BME280;15603;50.878;8.036;2024-03-22T14:58:27;145101.91;;;7.78;49.59
28354;BME280;15603;50.878;8.036;2024-03-22T15:00:55;145063.06;;;7.61;50.38
28354;BME280;15603;50.878;8.036;2024-03-22T15:03:21;145038.81;;;7.51;49.68
28354;BME280;15603;50.878;8.036;2024-03-22T15:05:53;145090.97;;;7.73;49.83
28354;BME280;15603;50.878;8.036;2024-03-22T15:08:20;145110.41;;;7.81;49.85
28354;BME280;15603;50.878;8.036;2024-03-22T15:10:46;145138.31;;;7.93;50.34
28354;BME280;15603;50.878;8.036;2024-03-22T15:13:14;145128.59;;;7.89;48.46
28354;BME280;15603;50.878;8.036;2024-03-22T15:15:40;145109.16;;;7.81;48.12
28354;BME280;15603;50.878;8.036;2024-03-22T15:18:07;145082.47;;;7.70;48.67
28354;BME280;15603;50.878;8.036;2024-03-22T15:20:34;145055.81;;;7.58;49.01
28354;BME280;15603;50.878;8.036;2024-03-22T15:23:01;145114.00;;;7.83;48.26
28354;BME280;15603;50.878;8.036;2024-03-22T15:25:27;145100.66;;;7.77;47.17
28354;BME280;15603;50.878;8.036;2024-03-22T15:27:54;145075.22;;;7.66;48.17
28354;BME280;15603;50.878;8.036;2024-03-22T15:30:20;145048.53;;;7.55;47.00
28354;BME280;15603;50.878;8.036;2024-03-22T15:32:46;145065.50;;;7.62;46.66
28354;BME280;15603;50.878;8.036;2024-03-22T15:35:12;145075.22;;;7.66;47.56
28354;BME280;15603;50.878;8.036;2024-03-22T15:37:39;145048.53;;;7.55;49.14
28354;BME280;15603;50.878;8.036;2024-03-22T15:40:08;145081.25;;;7.69;48.40
28354;BME280;15603;50.878;8.036;2024-03-22T15:42:36;145077.63;;;7.67;49.80
28354;BME280;15603;50.878;8.036;2024-03-22T15:45:03;145070.38;;;7.64;51.56
28354;BME280;15603;50.878;8.036;2024-03-22T15:47:31;145070.38;;;7.64;50.60
28354;BME280;15603;50.878;8.036;2024-03-22T15:49:59;145049.72;;;7.56;51.19
28354;BME280;15603;50.878;8.036;2024-03-22T15:52:25;145089.75;;;7.73;51.23
28354;BME280;15603;50.878;8.036;2024-03-22T15:54:53;145101.91;;;7.78;50.58
28354;BME280;15603;50.878;8.036;2024-03-22T15:57:20;145054.56;;;7.58;51.31
28354;BME280;15603;50.878;8.036;2024-03-22T15:59:47;145155.25;;;8.00;51.56
28354;BME280;15603;50.878;8.036;2024-03-22T16:02:13;145140.69;;;7.94;51.84
28354;BME280;15603;50.878;8.036;2024-03-22T16:04:39;145229.28;;;8.32;52.06
28354;BME280;15603;50.878;8.036;2024-03-22T16:07:06;145293.66;;;8.59;50.90
28354;BME280;15603;50.878;8.036;2024-03-22T16:09:35;145626.38;;;9.99;48.87
28354;BME280;15603;50.878;8.036;2024-03-22T16:12:03;145807.53;;;10.76;44.99
28354;BME280;15603;50.878;8.036;2024-03-22T16:14:30;145794.16;;;10.70;45.39
28354;BME280;15603;50.878;8.036;2024-03-22T16:16:57;145903.56;;;11.16;44.86
28354;BME280;15603;50.878;8.036;2024-03-22T16:19:23;145794.16;;;10.70;45.26
28354;BME280;15603;50.878;8.036;2024-03-22T16:21:49;146025.16;;;11.68;43.68
28354;BME280;15603;50.878;8.036;2024-03-22T16:24:15;146207.69;;;12.45;41.94
28354;BME280;15603;50.878;8.036;2024-03-22T16:26:42;146207.69;;;12.45;42.14
28354;BME280;15603;50.878;8.036;2024-03-22T16:29:08;146151.72;;;12.21;42.04
28354;BME280;15603;50.878;8.036;2024-03-22T16:31:34;145839.09;;;10.89;44.75
28354;BME280;15603;50.878;8.036;2024-03-22T16:34:00;145480.63;;;9.38;48.99
28354;BME280;15603;50.878;8.036;2024-03-22T16:36:26;145317.91;;;8.69;51.52
28354;BME280;15603;50.878;8.036;2024-03-22T16:38:53;145111.59;;;7.82;53.17
28354;BME280;15603;50.878;8.036;2024-03-22T16:41:19;145181.94;;;8.12;52.66
28354;BME280;15603;50.878;8.036;2024-03-22T16:43:45;145117.66;;;7.84;52.79
28354;BME280;15603;50.878;8.036;2024-03-22T16:46:12;145179.53;;;8.11;51.52
28354;BME280;15603;50.878;8.036;2024-03-22T16:48:38;145328.88;;;8.74;51.12
28354;BME280;15603;50.878;8.036;2024-03-22T16:51:04;145412.63;;;9.09;49.37
28354;BME280;15603;50.878;8.036;2024-03-22T16:53:31;145330.06;;;8.74;50.56
28354;BME280;15603;50.878;8.036;2024-03-22T16:55:57;145155.25;;;8.00;50.96
28354;BME280;15603;50.878;8.036;2024-03-22T16:58:24;145126.16;;;7.88;51.45
28354;BME280;15603;50.878;8.036;2024-03-22T17:00:52;145087.31;;;7.72;52.04
28354;BME280;15603;50.878;8.036;2024-03-22T17:03:20;145098.25;;;7.76;52.78
28354;BME280;15603;50.878;8.036;2024-03-22T17:05:47;144951.53;;;7.14;54.07
28354;BME280;15603;50.878;8.036;2024-03-22T17:08:13;144844.81;;;6.69;55.38
28354;BME280;15603;50.878;8.036;2024-03-22T17:10:42;144830.28;;;6.63;56.29
28354;BME280;15603;50.878;8.036;2024-03-22T17:13:10;144791.47;;;6.46;56.44
28354;BME280;15603;50.878;8.036;2024-03-22T17:15:36;144726.06;;;6.19;57.82
28354;BME280;15603;50.878;8.036;2024-03-22T17:18:03;144697.00;;;6.06;58.60
28354;BME280;15603;50.878;8.036;2024-03-22T17:20:30;144672.75;;;5.96;58.88
28354;BME280;15603;50.878;8.036;2024-03-22T17:22:58;144636.38;;;5.81;60.17
28354;BME280;15603;50.878;8.036;2024-03-22T17:25:24;144606.13;;;5.68;61.60
28354;BME280;15603;50.878;8.036;2024-03-22T17:27:50;144574.63;;;5.55;62.68
28354;BME280;15603;50.878;8.036;2024-03-22T17:30:17;144511.66;;;5.28;65.27
28354;BME280;15603;50.878;8.036;2024-03-22T17:32:44;144510.44;;;5.27;64.83
28354;BME280;15603;50.878;8.036;2024-03-22T17:35:10;144501.97;;;5.24;65.75
28354;BME280;15603;50.878;8.036;2024-03-22T17:37:37;144454.72;;;5.04;66.90
28354;BME280;15603;50.878;8.036;2024-03-22T17:40:06;144457.16;;;5.05;66.94
28354;BME280;15603;50.878;8.036;2024-03-22T17:42:33;144445.06;;;5.00;68.29
28354;BME280;15603;50.878;8.036;2024-03-22T17:44:59;144423.25;;;4.90;68.43
28354;BME280;15603;50.878;8.036;2024-03-22T17:47:25;144382.09;;;4.73;68.42
28354;BME280;15603;50.878;8.036;2024-03-22T17:49:51;144343.41;;;4.57;68.69
28354;BME280;15603;50.878;8.036;2024-03-22T17:52:18;144362.75;;;4.65;70.58
28354;BME280;15603;50.878;8.036;2024-03-22T17:54:45;144309.50;;;4.42;71.09
28354;BME280;15603;50.878;8.036;2024-03-22T17:57:12;144297.44;;;4.37;73.17
28354;BME280;15603;50.878;8.036;2024-03-22T17:59:38;144287.75;;;4.33;73.33
28354;BME280;15603;50.878;8.036;2024-03-22T18:02:04;144263.53;;;4.23;74.20
28354;BME280;15603;50.878;8.036;2024-03-22T18:04:30;144184.91;;;3.89;74.37
28354;BME280;15603;50.878;8.036;2024-03-22T18:06:56;144215.16;;;4.02;75.39
28354;BME280;15603;50.878;8.036;2024-03-22T18:09:23;144149.81;;;3.74;76.27
28354;BME280;15603;50.878;8.036;2024-03-22T18:11:49;144176.44;;;3.86;76.81
28354;BME280;15603;50.878;8.036;2024-03-22T18:14:16;144183.72;;;3.89;76.75
28354;BME280;15603;50.878;8.036;2024-03-22T18:16:44;144132.88;;;3.67;76.93
28354;BME280;15603;50.878;8.036;2024-03-22T18:19:11;144142.59;;;3.71;76.37
28354;BME280;15603;50.878;8.036;2024-03-22T18:21:37;144120.81;;;3.62;78.10
28354;BME280;15603;50.878;8.036;2024-03-22T18:24:06;144148.63;;;3.74;77.94
28354;BME280;15603;50.878;8.036;2024-03-22T18:26:32;144123.22;;;3.63;78.85
28354;BME280;15603;50.878;8.036;2024-03-22T18:28:59;144117.19;;;3.61;79.26
28354;BME280;15603;50.878;8.036;2024-03-22T18:31:25;144089.38;;;3.49;79.43